Time;durP1;ratioP1;P1;durP2;ratioP2;P2;SDS_P1;SDS_P2;PMS_P1;PMS_P2;Temp;Humidity;BMP_temperature;BMP_pressure;BME280_temperature;BME280_humidity;BME280_pressure;Samples;Min_cycle;Max_cycle;Signal;HPM_P1;HPM_P2
2020/12/06 00:01:16;;;;;;;26.17;22.57;;;5.90;99.90;;;;;;10597979;27;20195;-81
2020/12/06 00:06:22;;;;;;;26.50;22.37;;;5.90;99.90;;;;;;10584949;27;20789;-79
2020/12/06 00:11:25;;;;;;;24.90;22.10;;;6.00;99.90;;;;;;10585477;27;20246;-81
2020/12/06 00:16:27;;;;;;;26.13;22.30;;;5.90;99.90;;;;;;10570118;27;20310;-80
2020/12/06 00:21:28;;;;;;;24.77;21.63;;;5.90;99.90;;;;;;10599404;27;20211;-80
2020/12/06 00:26:31;;;;;;;24.60;21.13;;;5.90;99.90;;;;;;10575930;27;20307;-81
2020/12/06 00:31:33;;;;;;;24.60;21.90;;;6.00;99.90;;;;;;10555831;28;20223;-82
2020/12/06 00:36:34;;;;;;;24.83;22.13;;;6.00;99.90;;;;;;10570919;28;20737;-82
2020/12/06 00:41:37;;;;;;;22.23;19.60;;;6.00;99.90;;;;;;10570586;28;20698;-80
2020/12/06 00:46:38;;;;;;;24.53;20.77;;;6.00;99.90;;;;;;10569255;28;20583;-83
2020/12/06 00:51:40;;;;;;;27.30;21.87;;;5.90;99.90;;;;;;10565380;28;20235;-80
2020/12/06 00:56:43;;;;;;;23.63;20.57;;;6.00;99.90;;;;;;10583468;27;20222;-80
2020/12/06 01:01:44;;;;;;;24.23;20.93;;;6.00;99.90;;;;;;10611070;27;20190;-80
2020/12/06 01:06:46;;;;;;;24.00;21.40;;;6.10;99.90;;;;;;10603604;27;20310;-80
2020/12/06 01:11:49;;;;;;;26.07;21.70;;;6.00;99.90;;;;;;10626471;27;20238;-81
2020/12/06 01:16:51;;;;;;;25.37;21.57;;;6.00;99.90;;;;;;10607466;27;20708;-81
2020/12/06 01:21:53;;;;;;;26.53;22.00;;;6.00;99.90;;;;;;10607389;27;20203;-82
2020/12/06 01:26:56;;;;;;;27.53;22.70;;;6.00;99.90;;;;;;10568694;27;20257;-82
2020/12/06 01:31:57;;;;;;;26.57;22.00;;;6.00;99.90;;;;;;10565966;28;20203;-80
2020/12/06 01:36:59;;;;;;;25.93;23.10;;;6.00;99.90;;;;;;10619237;27;20230;-80
2020/12/06 01:42:01;;;;;;;26.10;22.27;;;6.10;99.90;;;;;;10597116;27;20230;-82
2020/12/06 01:47:04;;;;;;;27.23;21.47;;;6.10;99.90;;;;;;10550876;28;20310;-81
2020/12/06 01:52:07;;;;;;;25.33;21.83;;;6.10;99.90;;;;;;10566112;28;20256;-82
2020/12/06 01:57:09;;;;;;;26.00;22.47;;;6.10;99.90;;;;;;10584435;27;20240;-82
2020/12/06 02:02:13;;;;;;;26.27;22.13;;;6.10;99.90;;;;;;10575610;28;20686;-83
2020/12/06 02:07:15;;;;;;;25.40;21.10;;;6.10;99.90;;;;;;10569915;27;20222;-83
2020/12/06 02:12:17;;;;;;;25.03;21.70;;;6.10;99.90;;;;;;10627534;27;20730;-82
2020/12/06 02:17:19;;;;;;;28.50;23.30;;;6.10;99.90;;;;;;10610085;27;20278;-81
2020/12/06 02:22:22;;;;;;;25.43;20.70;;;6.20;99.90;;;;;;10607558;27;20612;-82
2020/12/06 02:27:23;;;;;;;25.87;21.30;;;6.10;99.90;;;;;;10628149;27;20215;-83
2020/12/06 02:32:25;;;;;;;27.93;22.70;;;6.10;99.90;;;;;;10610157;27;20190;-81
2020/12/06 02:37:27;;;;;;;25.70;22.70;;;6.10;99.90;;;;;;10612117;28;20253;-81
2020/12/06 02:42:29;;;;;;;26.43;23.20;;;6.10;99.90;;;;;;10617386;28;20217;-82
2020/12/06 02:47:30;;;;;;;28.50;23.63;;;6.20;99.90;;;;;;10603314;27;20241;-81
2020/12/06 02:52:33;;;;;;;30.17;24.47;;;6.20;99.90;;;;;;10561332;28;20199;-82
2020/12/06 02:57:35;;;;;;;28.87;24.30;;;6.20;99.90;;;;;;10578591;27;20230;-82
2020/12/06 03:02:36;;;;;;;28.77;23.70;;;6.20;99.90;;;;;;10579345;28;20213;-81
2020/12/06 03:07:39;;;;;;;29.40;24.47;;;6.20;99.90;;;;;;10570303;28;20219;-80
2020/12/06 03:12:40;;;;;;;30.60;25.17;;;6.20;99.90;;;;;;10588458;27;20289;-82
2020/12/06 03:17:42;;;;;;;30.70;24.57;;;6.20;99.90;;;;;;10617485;27;20205;-81
2020/12/06 03:22:44;;;;;;;30.93;24.07;;;6.20;99.90;;;;;;10639324;27;20197;-81
2020/12/06 03:27:46;;;;;;;28.00;22.90;;;6.20;99.90;;;;;;10638638;27;20631;-80
2020/12/06 03:32:48;;;;;;;28.90;23.27;;;6.20;99.90;;;;;;10617266;27;20194;-80
2020/12/06 03:37:50;;;;;;;30.97;21.73;;;6.20;99.90;;;;;;10618664;27;20702;-80
2020/12/06 03:42:52;;;;;;;31.40;24.47;;;6.20;99.90;;;;;;10619198;27;20266;-81
2020/12/06 03:47:55;;;;;;;30.63;25.10;;;6.10;99.90;;;;;;10623162;27;20211;-81
2020/12/06 03:52:57;;;;;;;34.27;24.60;;;6.10;99.90;;;;;;10623874;27;20222;-81
2020/12/06 03:57:59;;;;;;;33.20;24.53;;;6.10;99.90;;;;;;10620646;27;20237;-81
2020/12/06 04:03:00;;;;;;;38.60;26.67;;;6.10;99.90;;;;;;10579593;28;20211;-80
2020/12/06 04:08:03;;;;;;;38.37;27.33;;;6.10;99.90;;;;;;10579575;27;20235;-81
2020/12/06 04:13:04;;;;;;;40.27;25.27;;;6.10;99.90;;;;;;10578699;28;20195;-80
2020/12/06 04:18:06;;;;;;;38.87;27.90;;;6.10;99.90;;;;;;10595273;28;20207;-81
2020/12/06 04:23:08;;;;;;;38.67;26.50;;;6.10;99.90;;;;;;10595351;28;20809;-81
2020/12/06 04:28:10;;;;;;;37.67;26.53;;;6.10;99.90;;;;;;10577477;27;20215;-82
2020/12/06 04:33:12;;;;;;;37.63;26.00;;;6.00;99.90;;;;;;10576880;28;20195;-80
2020/12/06 04:38:14;;;;;;;42.00;28.20;;;6.00;99.90;;;;;;10580666;28;20287;-82
2020/12/06 04:43:18;;;;;;;40.50;27.23;;;6.00;99.90;;;;;;10579341;28;20187;-82
2020/12/06 04:48:27;;;;;;;39.43;27.10;;;6.00;99.90;;;;;;10599101;27;20240;-81
2020/12/06 04:53:39;;;;;;;41.33;27.23;;;6.00;99.90;;;;;;10585458;27;20210;-81
2020/12/06 04:58:42;;;;;;;44.83;28.77;;;6.00;99.90;;;;;;10622180;27;20649;-81
2020/12/06 05:03:46;;;;;;;39.10;26.10;;;6.00;99.90;;;;;;10598949;27;20244;-81
2020/12/06 05:08:49;;;;;;;39.87;27.03;;;5.90;99.90;;;;;;10560158;27;20227;-82
2020/12/06 05:13:51;;;;;;;38.23;25.40;;;5.90;99.90;;;;;;10619930;27;20273;-83
2020/12/06 05:18:52;;;;;;;40.60;25.43;;;5.90;99.90;;;;;;10602102;27;20286;-81
2020/12/06 05:23:55;;;;;;;42.83;27.20;;;5.90;99.90;;;;;;10595797;28;20215;-80
2020/12/06 05:28:58;;;;;;;35.20;24.47;;;5.90;99.90;;;;;;10576444;27;20235;-80
2020/12/06 05:33:59;;;;;;;42.80;26.57;;;5.80;99.90;;;;;;10592444;28;20257;-81
2020/12/06 05:39:02;;;;;;;41.90;28.07;;;5.80;99.90;;;;;;10552873;28;20204;-80
2020/12/06 05:44:05;;;;;;;39.70;28.10;;;5.90;99.90;;;;;;10593585;28;20657;-80
2020/12/06 05:49:07;;;;;;;40.27;27.57;;;5.90;99.90;;;;;;10575725;28;20310;-81
2020/12/06 05:54:12;;;;;;;38.50;28.50;;;5.90;99.90;;;;;;10579281;28;20203;-81
2020/12/06 05:59:13;;;;;;;36.63;26.90;;;5.90;99.90;;;;;;10547859;28;20220;-80
2020/12/06 06:04:20;;;;;;;39.17;26.80;;;5.90;99.90;;;;;;10552309;28;20279;-82
2020/12/06 06:09:26;;;;;;;39.10;28.53;;;5.90;99.90;;;;;;10530865;28;20220;-80
2020/12/06 06:14:29;;;;;;;37.30;25.40;;;5.90;99.90;;;;;;10560259;27;20290;-82
2020/12/06 06:19:30;;;;;;;32.60;24.10;;;5.90;99.90;;;;;;10591053;28;20249;-80
2020/12/06 06:24:34;;;;;;;37.60;26.00;;;5.80;99.90;;;;;;10589771;28;20214;-82
2020/12/06 06:29:37;;;;;;;36.33;26.67;;;5.80;99.90;;;;;;10592644;28;20264;-83
2020/12/06 06:34:39;;;;;;;37.77;26.20;;;5.90;99.90;;;;;;10584572;28;20199;-83
2020/12/06 06:39:42;;;;;;;38.07;27.07;;;5.90;99.90;;;;;;10583487;28;20207;-84
2020/12/06 06:44:46;;;;;;;41.23;27.87;;;5.90;99.90;;;;;;10583462;28;20198;-83
2020/12/06 06:49:52;;;;;;;40.57;28.10;;;5.90;99.90;;;;;;10572585;27;20229;-82
2020/12/06 06:54:55;;;;;;;39.43;27.60;;;6.00;99.90;;;;;;10550116;28;20195;-83
2020/12/06 06:59:57;;;;;;;35.33;23.47;;;6.00;99.90;;;;;;10593697;28;20191;-81
2020/12/06 07:04:59;;;;;;;39.97;26.50;;;5.90;99.90;;;;;;10593612;28;20285;-82
2020/12/06 07:10:03;;;;;;;36.87;26.43;;;5.80;99.90;;;;;;10598981;28;20609;-81
2020/12/06 07:15:09;;;;;;;37.23;25.77;;;5.80;99.90;;;;;;10596004;27;20715;-83
2020/12/06 07:20:14;;;;;;;38.47;24.60;;;5.80;99.90;;;;;;10549653;28;20192;-81
2020/12/06 07:25:18;;;;;;;39.97;24.23;;;5.80;99.90;;;;;;10544426;28;20663;-80
2020/12/06 07:30:20;;;;;;;35.43;22.30;;;5.70;99.90;;;;;;10551101;28;20294;-82
2020/12/06 07:35:23;;;;;;;37.10;25.40;;;5.70;99.90;;;;;;10559300;28;20313;-83
2020/12/06 07:40:26;;;;;;;37.40;23.37;;;5.80;99.90;;;;;;10585380;27;20186;-81
2020/12/06 07:45:28;;;;;;;36.87;22.40;;;5.80;99.90;;;;;;10616277;27;20216;-82
2020/12/06 07:50:29;;;;;;;33.67;20.47;;;5.80;99.90;;;;;;10631006;27;20627;-81
2020/12/06 07:55:32;;;;;;;34.00;21.97;;;5.80;99.90;;;;;;10621648;27;20984;-82
2020/12/06 08:00:37;;;;;;;38.63;21.93;;;5.80;99.90;;;;;;10593640;27;20194;-81
2020/12/06 08:05:41;;;;;;;34.90;21.77;;;5.90;99.90;;;;;;10633503;27;20297;-83
2020/12/06 08:10:49;;;;;;;32.70;20.40;;;5.90;99.90;;;;;;10616700;27;20226;-83
2020/12/06 08:15:50;;;;;;;32.47;20.00;;;6.00;99.90;;;;;;10610090;27;20219;-83
2020/12/06 08:20:53;;;;;;;33.73;21.00;;;6.00;99.90;;;;;;10610498;27;20194;-81
2020/12/06 08:25:55;;;;;;;30.40;18.67;;;6.10;99.90;;;;;;10610286;27;20209;-82
2020/12/06 08:30:57;;;;;;;29.70;18.10;;;6.10;99.90;;;;;;10612706;27;20214;-83
2020/12/06 08:36:01;;;;;;;26.23;17.90;;;6.10;99.90;;;;;;10633532;27;20245;-82
2020/12/06 08:41:05;;;;;;;26.00;16.20;;;6.00;99.90;;;;;;10610178;27;20187;-84
2020/12/06 08:46:08;;;;;;;27.70;17.63;;;6.10;99.90;;;;;;10611904;27;20214;-80
2020/12/06 08:51:25;;;;;;;20.37;14.60;;;6.10;99.90;;;;;;10630632;27;20215;-82
2020/12/06 08:56:37;;;;;;;22.90;15.10;;;6.20;99.90;;;;;;10626568;27;20983;-82
2020/12/06 09:01:49;;;;;;;26.03;16.70;;;6.20;99.90;;;;;;10609092;27;20191;-81
2020/12/06 09:06:54;;;;;;;24.30;16.20;;;6.30;99.90;;;;;;10612367;27;20214;-83
2020/12/06 09:11:57;;;;;;;23.07;16.20;;;6.30;99.90;;;;;;10609204;27;20233;-82
2020/12/06 09:16:59;;;;;;;18.13;13.37;;;6.40;99.90;;;;;;10614532;27;20263;-83
2020/12/06 09:22:01;;;;;;;18.10;12.53;;;6.50;99.90;;;;;;10629214;27;20200;-83
2020/12/06 09:27:03;;;;;;;20.47;14.10;;;6.60;99.90;;;;;;10610479;27;20214;-82
2020/12/06 09:32:05;;;;;;;16.03;12.20;;;6.60;99.90;;;;;;10609082;27;20717;-82
2020/12/06 09:37:07;;;;;;;14.30;11.37;;;6.60;99.90;;;;;;10622444;27;20233;-83
2020/12/06 09:42:09;;;;;;;19.30;12.83;;;6.60;99.90;;;;;;10621242;27;20191;-82
2020/12/06 09:47:11;;;;;;;17.30;12.47;;;6.60;99.90;;;;;;10624479;27;20221;-78
2020/12/06 09:52:12;;;;;;;16.60;12.87;;;6.60;99.90;;;;;;10632766;27;20214;-80
2020/12/06 09:57:15;;;;;;;17.93;11.37;;;6.60;99.90;;;;;;10624740;27;20240;-83
2020/12/06 10:02:17;;;;;;;17.47;11.33;;;6.70;99.90;;;;;;10619881;27;20202;-83
2020/12/06 10:07:21;;;;;;;14.73;10.50;;;6.70;99.90;;;;;;10606784;27;20244;-80
2020/12/06 10:12:24;;;;;;;15.80;11.43;;;6.70;99.90;;;;;;10604662;27;20231;-82
2020/12/06 10:17:25;;;;;;;14.53;10.77;;;6.70;99.90;;;;;;10621896;27;20218;-81
2020/12/06 10:22:27;;;;;;;12.83;10.17;;;6.70;99.90;;;;;;10592922;27;20183;-82
2020/12/06 10:27:29;;;;;;;12.90;9.27;;;6.80;99.90;;;;;;10588871;27;20225;-82
2020/12/06 10:32:31;;;;;;;12.23;9.50;;;6.70;99.90;;;;;;10626117;27;20289;-79
2020/12/06 10:37:33;;;;;;;13.00;10.80;;;6.70;99.90;;;;;;10624413;27;20268;-83
2020/12/06 10:42:35;;;;;;;19.77;14.80;;;6.70;99.90;;;;;;10617150;27;20197;-81
2020/12/06 10:47:37;;;;;;;12.13;9.80;;;6.80;99.90;;;;;;10615843;27;20221;-81
2020/12/06 10:52:38;;;;;;;12.50;10.77;;;6.80;99.90;;;;;;10618811;27;20210;-81
2020/12/06 10:57:41;;;;;;;12.03;9.43;;;6.80;99.90;;;;;;10623639;27;20221;-81
2020/12/06 11:02:43;;;;;;;9.60;8.70;;;6.80;99.90;;;;;;10606101;28;20182;-82
2020/12/06 11:07:44;;;;;;;10.30;9.20;;;6.90;99.90;;;;;;10620967;27;20287;-82
2020/12/06 11:12:47;;;;;;;12.00;9.90;;;6.90;99.90;;;;;;10608806;28;20690;-83
2020/12/06 11:17:49;;;;;;;10.90;9.80;;;7.00;99.90;;;;;;10619998;28;20229;-81
2020/12/06 11:22:50;;;;;;;11.37;10.20;;;6.90;99.90;;;;;;10608405;28;20195;-83
2020/12/06 11:27:53;;;;;;;11.87;10.13;;;7.00;99.90;;;;;;10623492;27;20246;-82
2020/12/06 11:32:54;;;;;;;11.07;9.00;;;7.00;99.90;;;;;;10608014;27;20210;-83
2020/12/06 11:37:56;;;;;;;11.00;9.80;;;7.00;99.90;;;;;;10614429;27;20225;-83
2020/12/06 11:42:59;;;;;;;10.90;9.80;;;7.00;99.90;;;;;;10616353;27;20285;-82
2020/12/06 11:48:00;;;;;;;12.20;9.83;;;7.00;99.90;;;;;;10606784;27;20257;-83
2020/12/06 11:53:03;;;;;;;9.43;8.43;;;7.00;99.90;;;;;;10612034;27;20212;-82
2020/12/06 11:58:05;;;;;;;11.03;9.80;;;7.00;99.90;;;;;;10613461;27;20214;-82
2020/12/06 12:03:07;;;;;;;8.60;7.53;;;7.00;99.90;;;;;;10633761;27;20255;-82
2020/12/06 12:08:09;;;;;;;9.50;8.30;;;7.10;99.90;;;;;;10635823;27;20202;-82
2020/12/06 12:13:11;;;;;;;10.93;8.50;;;7.10;99.90;;;;;;10634538;27;20198;-82
2020/12/06 12:18:13;;;;;;;9.80;8.80;;;7.20;99.90;;;;;;10632499;27;20218;-82
2020/12/06 12:23:15;;;;;;;11.93;9.27;;;7.20;99.90;;;;;;10636549;27;20243;-82
2020/12/06 12:28:17;;;;;;;9.23;8.23;;;7.20;99.90;;;;;;10639155;27;20222;-82
2020/12/06 12:33:19;;;;;;;8.90;8.00;;;7.20;99.90;;;;;;10608019;27;20198;-81
2020/12/06 12:38:20;;;;;;;9.00;8.10;;;7.20;99.90;;;;;;10620202;27;20306;-80
2020/12/06 12:43:23;;;;;;;9.50;8.50;;;7.20;99.90;;;;;;10622624;27;20202;-80
2020/12/06 12:48:25;;;;;;;9.33;8.40;;;7.30;99.90;;;;;;10607061;27;20206;-80
2020/12/06 12:53:27;;;;;;;8.13;7.40;;;7.40;99.90;;;;;;10624742;27;20190;-81
2020/12/06 12:58:29;;;;;;;8.40;7.60;;;7.40;99.90;;;;;;10627304;27;20218;-80
2020/12/06 13:03:31;;;;;;;12.20;10.90;;;7.50;99.90;;;;;;10606145;27;20186;-80
2020/12/06 13:08:32;;;;;;;7.50;6.80;;;7.50;99.90;;;;;;10625658;27;20219;-80
2020/12/06 13:13:35;;;;;;;7.10;6.47;;;7.60;99.90;;;;;;10621679;27;20202;-80
2020/12/06 13:18:37;;;;;;;5.73;5.30;;;7.60;99.90;;;;;;10624826;27;20301;-80
2020/12/06 13:23:38;;;;;;;5.47;5.07;;;7.60;99.90;;;;;;10624127;27;20206;-80
2020/12/06 13:28:41;;;;;;;5.10;4.70;;;7.70;99.90;;;;;;10633163;27;20693;-80
2020/12/06 13:33:42;;;;;;;5.47;5.03;;;7.60;99.90;;;;;;10629150;27;20200;-80
2020/12/06 13:38:46;;;;;;;5.73;5.13;;;7.60;99.90;;;;;;10622525;27;20214;-81
2020/12/06 13:43:49;;;;;;;6.37;5.87;;;7.60;99.90;;;;;;10613571;27;20258;-80
2020/12/06 13:48:51;;;;;;;6.87;6.33;;;7.60;99.90;;;;;;10613676;27;20297;-81
2020/12/06 13:53:52;;;;;;;5.70;5.30;;;7.60;99.90;;;;;;10621818;27;20198;-80
2020/12/06 13:58:56;;;;;;;5.87;5.47;;;7.60;99.90;;;;;;10597194;27;20241;-80
2020/12/06 14:03:58;;;;;;;5.47;5.07;;;7.50;99.90;;;;;;10617349;27;20289;-80
2020/12/06 14:09:00;;;;;;;6.10;5.50;;;7.50;99.90;;;;;;10603381;27;20683;-81
2020/12/06 14:14:02;;;;;;;6.43;5.90;;;7.50;99.90;;;;;;10608107;27;20202;-80
2020/12/06 14:19:05;;;;;;;5.73;5.23;;;7.50;99.90;;;;;;10616880;27;20211;-80
2020/12/06 14:24:07;;;;;;;6.13;5.70;;;7.50;99.90;;;;;;10626001;27;20194;-79
2020/12/06 14:29:10;;;;;;;4.97;4.63;;;7.50;99.90;;;;;;10618166;27;20233;-79
2020/12/06 14:34:12;;;;;;;6.17;5.57;;;7.40;99.90;;;;;;10608849;27;20218;-79
2020/12/06 14:39:13;;;;;;;6.23;5.77;;;7.40;99.90;;;;;;10578775;28;20215;-79
2020/12/06 14:44:16;;;;;;;6.30;5.80;;;7.40;99.90;;;;;;10568168;28;20195;-80
2020/12/06 14:49:18;;;;;;;6.13;5.63;;;7.40;99.90;;;;;;10579677;28;20240;-80
2020/12/06 14:54:20;;;;;;;6.37;5.83;;;7.40;99.90;;;;;;10578291;28;20202;-80
2020/12/06 14:59:22;;;;;;;7.00;6.40;;;7.40;99.90;;;;;;10580522;28;20683;-79
2020/12/06 15:04:24;;;;;;;10.30;9.30;;;7.40;99.90;;;;;;10579860;28;20203;-80
2020/12/06 15:09:26;;;;;;;9.50;8.60;;;7.40;99.90;;;;;;10573814;28;20218;-80
2020/12/06 15:14:31;;;;;;;8.57;7.77;;;7.40;99.90;;;;;;10583977;27;20282;-79
2020/12/06 15:19:33;;;;;;;7.50;6.90;;;7.40;99.90;;;;;;10565903;28;20226;-78
2020/12/06 15:24:35;;;;;;;8.73;8.03;;;7.40;99.90;;;;;;10566085;28;20318;-79
2020/12/06 15:29:38;;;;;;;7.23;6.57;;;7.40;99.90;;;;;;10568106;28;20269;-80
2020/12/06 15:34:40;;;;;;;6.90;6.40;;;7.40;99.90;;;;;;10591966;27;20199;-80
2020/12/06 15:39:41;;;;;;;7.13;6.43;;;7.40;99.90;;;;;;10612412;27;20222;-80
2020/12/06 15:44:44;;;;;;;8.07;7.37;;;7.30;99.90;;;;;;10590111;27;20698;-79
2020/12/06 15:49:46;;;;;;;7.63;6.93;;;7.20;99.90;;;;;;10610570;27;20633;-80
2020/12/06 15:54:48;;;;;;;9.33;8.30;;;7.20;99.90;;;;;;10607728;27;20201;-80
2020/12/06 15:59:50;;;;;;;8.83;8.13;;;7.20;99.90;;;;;;10608371;27;20242;-80
2020/12/06 16:04:52;;;;;;;9.70;8.80;;;7.10;99.90;;;;;;10609128;27;20247;-80
2020/12/06 16:09:54;;;;;;;9.87;8.93;;;7.10;99.90;;;;;;10626309;27;20246;-80
2020/12/06 16:14:56;;;;;;;11.00;10.00;;;7.00;99.90;;;;;;10627647;27;20203;-78
2020/12/06 16:19:58;;;;;;;11.93;10.20;;;7.00;99.90;;;;;;10622073;27;20204;-79
2020/12/06 16:25:00;;;;;;;12.00;10.97;;;6.90;99.90;;;;;;10616919;27;20194;-79
2020/12/06 16:30:03;;;;;;;13.13;10.90;;;6.80;99.90;;;;;;10611151;27;20679;-80
2020/12/06 16:35:05;;;;;;;12.87;11.67;;;6.80;99.90;;;;;;10623096;27;20471;-80
2020/12/06 16:40:07;;;;;;;13.70;12.50;;;6.70;99.90;;;;;;10627713;27;20265;-79
2020/12/06 16:45:10;;;;;;;14.70;13.33;;;6.60;99.90;;;;;;10626108;27;20221;-79
2020/12/06 16:50:12;;;;;;;13.43;12.13;;;6.60;99.90;;;;;;10631679;27;20230;-78
2020/12/06 16:55:14;;;;;;;14.50;13.23;;;6.60;99.90;;;;;;10628214;27;20214;-79
2020/12/06 17:00:17;;;;;;;14.20;12.90;;;6.60;99.90;;;;;;10581776;27;20243;-78
2020/12/06 17:05:19;;;;;;;12.33;11.13;;;6.60;99.90;;;;;;10622368;27;20221;-79
2020/12/06 17:10:20;;;;;;;11.47;10.50;;;6.60;99.90;;;;;;10645090;27;20253;-79
2020/12/06 17:15:23;;;;;;;10.40;9.40;;;6.60;99.90;;;;;;10610529;27;20218;-80
2020/12/06 17:20:25;;;;;;;10.27;9.27;;;6.60;99.90;;;;;;10590971;27;20290;-79
2020/12/06 17:25:27;;;;;;;10.57;9.57;;;6.60;99.90;;;;;;10592953;27;20223;-79
2020/12/06 17:30:30;;;;;;;12.63;11.47;;;6.60;99.90;;;;;;10595233;27;20219;-79
2020/12/06 17:35:31;;;;;;;9.83;8.93;;;6.60;99.90;;;;;;10568229;28;20215;-79
2020/12/06 17:40:33;;;;;;;9.47;8.67;;;6.60;99.90;;;;;;10600590;27;20202;-80
2020/12/06 17:45:36;;;;;;;10.40;9.40;;;6.50;99.90;;;;;;10623545;27;20298;-80
2020/12/06 17:50:38;;;;;;;9.97;9.07;;;6.50;99.90;;;;;;10619927;27;20615;-79
2020/12/06 17:55:40;;;;;;;9.80;8.90;;;6.50;99.90;;;;;;10606303;27;20236;-80
2020/12/06 18:00:43;;;;;;;10.23;9.23;;;6.40;99.90;;;;;;10606835;27;20201;-80
2020/12/06 18:05:45;;;;;;;10.83;9.77;;;6.50;99.90;;;;;;10590216;27;20214;-80
2020/12/06 18:10:47;;;;;;;11.50;10.30;;;6.50;99.90;;;;;;10617470;27;20225;-80
2020/12/06 18:15:50;;;;;;;11.30;9.87;;;6.50;99.90;;;;;;10581193;27;20247;-79
2020/12/06 18:20:52;;;;;;;11.93;10.73;;;6.50;99.90;;;;;;10621513;27;20752;-79
2020/12/06 18:25:53;;;;;;;10.97;9.97;;;6.50;99.90;;;;;;10620092;27;20229;-79
2020/12/06 18:30:56;;;;;;;11.97;10.80;;;6.50;99.90;;;;;;10595116;22;20232;-81
2020/12/06 18:36:06;;;;;;;12.23;11.03;;;6.50;99.90;;;;;;10564634;28;20689;-81
2020/12/06 18:41:08;;;;;;;12.57;11.30;;;6.50;99.90;;;;;;10523151;28;20261;-80
2020/12/06 18:46:12;;;;;;;11.17;10.17;;;6.50;99.90;;;;;;10554169;27;20183;-81
2020/12/06 18:51:14;;;;;;;12.43;11.07;;;6.50;99.90;;;;;;10537416;28;20223;-81
2020/12/06 18:56:17;;;;;;;26.23;22.17;;;6.50;99.90;;;;;;10576175;28;20211;-78
2020/12/06 19:01:25;;;;;;;19.73;16.33;;;6.40;99.90;;;;;;10557829;28;20215;-79
2020/12/06 19:06:26;;;;;;;16.77;15.10;;;6.40;99.90;;;;;;10565085;28;20208;-79
2020/12/06 19:11:37;;;;;;;12.33;11.13;;;6.30;99.90;;;;;;10547341;28;20806;-79
2020/12/06 19:16:40;;;;;;;11.67;10.47;;;6.30;99.90;;;;;;10528511;28;20223;-78
2020/12/06 19:21:42;;;;;;;16.63;14.83;;;6.30;99.90;;;;;;10551025;28;20240;-78
2020/12/06 19:26:44;;;;;;;11.80;10.67;;;6.20;99.90;;;;;;10532790;28;20294;-78
2020/12/06 19:31:48;;;;;;;10.90;9.80;;;6.20;99.90;;;;;;10568002;28;20242;-79
2020/12/06 19:36:50;;;;;;;11.57;10.47;;;6.20;99.90;;;;;;10571959;27;20201;-79
2020/12/06 19:41:52;;;;;;;11.53;10.33;;;6.20;99.90;;;;;;10540850;28;20651;-79
2020/12/06 19:46:57;;;;;;;10.60;9.60;;;6.20;99.90;;;;;;10562445;28;20206;-79
2020/12/06 19:51:59;;;;;;;9.73;8.80;;;6.20;99.90;;;;;;10563009;28;20223;-79
2020/12/06 19:57:01;;;;;;;10.23;9.30;;;6.10;99.90;;;;;;10544160;28;20710;-80
2020/12/06 20:02:05;;;;;;;10.20;9.20;;;6.00;99.90;;;;;;10567547;28;20219;-82
2020/12/06 20:07:09;;;;;;;10.00;9.10;;;5.90;99.90;;;;;;10557923;28;20206;-79
2020/12/06 20:12:11;;;;;;;11.37;10.27;;;5.80;99.90;;;;;;10535554;28;20211;-79
2020/12/06 20:17:14;;;;;;;10.57;9.53;;;5.70;99.90;;;;;;10526799;28;20576;-79
2020/12/06 20:22:16;;;;;;;10.27;9.27;;;5.60;99.90;;;;;;10528497;28;20239;-78
2020/12/06 20:27:17;;;;;;;11.53;10.43;;;5.40;99.90;;;;;;10556137;28;20203;-78
2020/12/06 20:32:20;;;;;;;11.67;10.67;;;5.30;99.90;;;;;;10555899;28;20696;-78
2020/12/06 20:37:22;;;;;;;11.60;10.50;;;5.20;99.90;;;;;;10522427;28;20194;-78
2020/12/06 20:42:23;;;;;;;11.20;10.17;;;5.10;99.90;;;;;;10551034;28;20306;-78
2020/12/06 20:47:26;;;;;;;8.43;7.60;;;4.90;99.90;;;;;;10534499;28;20306;-78
2020/12/06 20:52:27;;;;;;;11.60;10.60;;;4.90;99.90;;;;;;10578335;28;20304;-78
2020/12/06 20:57:29;;;;;;;11.27;9.77;;;4.90;99.90;;;;;;10540296;28;20256;-78
2020/12/06 21:02:32;;;;;;;10.07;9.07;;;4.90;99.90;;;;;;10558115;28;20214;-78
2020/12/06 21:07:33;;;;;;;9.80;9.00;;;4.90;99.90;;;;;;10557867;28;20225;-78
2020/12/06 21:12:35;;;;;;;10.07;9.20;;;4.80;99.90;;;;;;10550141;28;20353;-78
2020/12/06 21:17:38;;;;;;;9.80;8.90;;;4.80;99.90;;;;;;10541006;28;20605;-78
2020/12/06 21:22:39;;;;;;;10.10;9.10;;;4.80;99.90;;;;;;10568776;28;20565;-78
2020/12/06 21:27:41;;;;;;;11.80;10.63;;;4.90;99.90;;;;;;10535788;28;20606;-78
2020/12/06 21:32:44;;;;;;;11.13;10.13;;;4.90;99.90;;;;;;10550483;28;20223;-78
2020/12/06 21:37:45;;;;;;;10.27;9.37;;;4.90;99.90;;;;;;10524055;28;20294;-78
2020/12/06 21:42:47;;;;;;;11.53;10.53;;;5.00;99.90;;;;;;10537112;28;20218;-78
2020/12/06 21:47:50;;;;;;;10.60;9.70;;;5.00;99.90;;;;;;10538290;28;20201;-78
2020/12/06 21:52:52;;;;;;;10.00;9.10;;;5.10;99.90;;;;;;10545483;28;20628;-78
2020/12/06 21:57:53;;;;;;;9.57;8.73;;;5.10;99.90;;;;;;10560515;28;20207;-78
2020/12/06 22:02:56;;;;;;;8.40;7.70;;;5.00;99.90;;;;;;10550043;28;20218;-78
2020/12/06 22:07:58;;;;;;;8.63;7.93;;;4.90;99.90;;;;;;10537488;28;20720;-78
2020/12/06 22:13:00;;;;;;;10.20;9.33;;;4.80;99.90;;;;;;10536732;28;20233;-78
2020/12/06 22:18:02;;;;;;;9.53;8.73;;;4.80;99.90;;;;;;10537389;28;20208;-78
2020/12/06 22:23:04;;;;;;;9.40;8.60;;;4.90;99.90;;;;;;10551687;28;20751;-78
2020/12/06 22:28:05;;;;;;;9.57;8.67;;;4.90;99.90;;;;;;10531032;28;20650;-78
2020/12/06 22:33:08;;;;;;;9.60;8.80;;;4.90;99.90;;;;;;10546396;28;20327;-78
2020/12/06 22:38:10;;;;;;;10.10;9.20;;;4.90;99.90;;;;;;10553048;28;20209;-78
2020/12/06 22:43:11;;;;;;;8.97;8.17;;;5.00;99.90;;;;;;10572300;28;20211;-78
2020/12/06 22:48:14;;;;;;;8.80;8.10;;;5.00;99.90;;;;;;10551170;28;20295;-78
2020/12/06 22:53:15;;;;;;;8.40;7.70;;;4.90;99.90;;;;;;10563424;28;20273;-78
2020/12/06 22:58:17;;;;;;;8.20;7.60;;;4.90;99.90;;;;;;10530892;28;20211;-79
2020/12/06 23:03:20;;;;;;;6.90;6.40;;;5.00;99.90;;;;;;10543703;28;20221;-79
2020/12/06 23:08:21;;;;;;;7.60;6.90;;;5.00;99.90;;;;;;10532609;28;20227;-79
2020/12/06 23:13:23;;;;;;;7.40;6.70;;;5.00;99.90;;;;;;10534532;28;20230;-79
2020/12/06 23:18:26;;;;;;;6.60;6.00;;;5.00;99.90;;;;;;10493236;28;20689;-79
2020/12/06 23:23:28;;;;;;;6.90;6.40;;;4.90;99.90;;;;;;10529613;28;20234;-79
2020/12/06 23:28:29;;;;;;;6.77;6.17;;;4.80;99.90;;;;;;10530021;28;20664;-79
2020/12/06 23:33:32;;;;;;;6.93;6.43;;;4.90;99.90;;;;;;10523051;28;20657;-79
2020/12/06 23:38:34;;;;;;;6.80;6.23;;;4.90;99.90;;;;;;10518979;28;20227;-79
2020/12/06 23:43:35;;;;;;;6.40;5.90;;;5.00;99.90;;;;;;10518706;28;20216;-79
2020/12/06 23:48:38;;;;;;;5.83;5.33;;;5.00;99.90;;;;;;10501016;28;20207;-79
2020/12/06 23:53:41;;;;;;;6.00;5.50;;;5.00;99.90;;;;;;10520552;28;20248;-79
2020/12/06 23:58:43;;;;;;;5.30;4.90;;;5.00;99.90;;;;;;10532410;28;20294;-79
